KCFD/CFD METAR and TAF weather

Enter ICAO airport designator
Station Type Date Time Source
KCFD METAR 2018/01/17 06:35 UTC NOAA

KCFD 170635Z AUTO 35005KT 10SM CLR M07/M13 A3075 RMK AO2 T10731127


Station Type Date Time Source
KCFD Decoded METAR 2018/01/17 06:35 UTC NOAA

Station name not available
Jan 17, 2018 - 01:35 AM EST / 2018.01.17 0635 UTC
Wind: from the N (350 degrees) at 6 MPH (5 KT):0
Visibility: 10 mile(s):0
Sky conditions: clear
Temperature: 18.9 F (-7.3 C)
Windchill: 10 F (-12 C):1
Dew Point: 9.1 F (-12.7 C)
Relative Humidity: 65%
Pressure (altimeter): 30.75 in. Hg (1041 hPa)
ob: KCFD 170635Z AUTO 35005KT 10SM CLR M07/M13 A3075 RMK AO2 T10731127
cycle: 6

Station Type Date Time Source
KCFD TAF UTC NOAA

Error!


Example: see airport list